Wetterstation Vordersexau
Wetterdaten: Woche 19.03.12 - 25.03.12 (KW12)
Datum Zeit Temp. A. Feuchte A. Luftdruck Regen Wind Richtung Taupunkt Windchill Windben
19.03.2012 00:00 5,3 C 85 % 1021,0 hPa 0,4 l/m 0,0 km/h N-NO 3,0 C 5,3 C 0,0 km/h
19.03.2012 01:00 5,5 C 85 % 1021,2 hPa 0,7 l/m 0,0 km/h O-SO 3,2 C 5,5 C 0,0 km/h
19.03.2012 02:00 5,4 C 85 % 1021,4 hPa 0,4 l/m 0,0 km/h SO 3,1 C 5,4 C 0,0 km/h
19.03.2012 03:00 5,4 C 84 % 1021,4 hPa 0,4 l/m 3,9 km/h O-NO 2,9 C 5,4 C 2,2 km/h
19.03.2012 04:00 5,3 C 84 % 1021,7 hPa 0,7 l/m 0,0 km/h O-NO 2,8 C 5,3 C 0,0 km/h
19.03.2012 05:00 5,1 C 84 % 1022,2 hPa 0,7 l/m 0,0 km/h O 2,6 C 5,1 C 0,0 km/h
19.03.2012 06:00 5,0 C 84 % 1022,7 hPa 0,4 l/m 0,0 km/h O-SO 2,5 C 5,0 C 0,0 km/h
19.03.2012 07:00 5,2 C 84 % 1023,5 hPa 0,7 l/m 0,0 km/h O-NO 2,7 C 5,2 C 0,0 km/h
19.03.2012 08:00 5,4 C 84 % 1024,3 hPa 1,1 l/m 0,0 km/h NO 2,9 C 5,4 C 0,0 km/h
19.03.2012 09:00 5,9 C 85 % 1024,8 hPa 0,7 l/m 0,0 km/h SO 3,6 C 5,9 C 0,0 km/h
19.03.2012 10:00 6,8 C 85 % 1025,7 hPa 0,0 l/m 5,2 km/h NO 4,5 C 6,8 C 2,9 km/h
19.03.2012 11:00 7,9 C 85 % 1026,1 hPa 0,7 l/m 0,0 km/h W-NW 5,5 C 7,9 C 0,0 km/h
19.03.2012 12:00 10,7 C 77 % 1026,6 hPa 0,0 l/m 0,0 km/h W 6,8 C 10,7 C 0,0 km/h
19.03.2012 13:00 10,1 C 77 % 1026,6 hPa 0,0 l/m 3,9 km/h N 6,3 C 10,1 C 2,2 km/h
19.03.2012 14:00 8,9 C 75 % 1026,6 hPa 0,0 l/m 0,0 km/h O 4,7 C 8,9 C 0,0 km/h
19.03.2012 15:00 8,6 C 78 % 1026,9 hPa 0,0 l/m 0,0 km/h S-SO 5,0 C 8,6 C 0,0 km/h
19.03.2012 16:00 9,2 C 79 % 1026,9 hPa 0,0 l/m 0,0 km/h O-SO 5,8 C 9,2 C 0,0 km/h
19.03.2012 17:00 8,3 C 81 % 1027,2 hPa 0,0 l/m 0,0 km/h O-NO 5,2 C 8,3 C 0,0 km/h
19.03.2012 18:00 7,6 C 82 % 1027,6 hPa 0,0 l/m 0,0 km/h O-NO 4,7 C 7,6 C 0,0 km/h
19.03.2012 19:00 6,2 C 84 % 1028,4 hPa 0,0 l/m 0,0 km/h O-SO 3,7 C 6,2 C 0,0 km/h
19.03.2012 20:00 5,8 C 85 % 1029,1 hPa 0,0 l/m 0,0 km/h O 3,5 C 5,8 C 0,0 km/h
19.03.2012 21:00 5,3 C 85 % 1029,8 hPa 0,0 l/m 0,0 km/h SO 3,0 C 5,3 C 0,0 km/h
19.03.2012 22:00 4,9 C 86 % 1030,1 hPa 0,0 l/m 0,0 km/h SO 2,8 C 4,9 C 0,0 km/h
19.03.2012 23:00 4,1 C 85 % 1030,6 hPa 0,0 l/m 0,0 km/h O 1,8 C 4,1 C 0,0 km/h
20.03.2012 00:00 3,3 C 86 % 1030,8 hPa 0,0 l/m 0,0 km/h O-NO 1,2 C 3,3 C 0,0 km/h
20.03.2012 01:00 3,4 C 85 % 1030,8 hPa 0,0 l/m 0,0 km/h O-NO 1,1 C 3,4 C 0,0 km/h
20.03.2012 02:00 3,3 C 85 % 1030,8 hPa 0,0 l/m 0,0 km/h O-SO 1,0 C 3,3 C 0,0 km/h
20.03.2012 03:00 2,4 C 86 % 1030,7 hPa 0,0 l/m 0,0 km/h SO 0,3 C 2,4 C 0,0 km/h
20.03.2012 04:00 1,9 C 86 % 1030,5 hPa 0,0 l/m 0,0 km/h O-NO -0,2 C 1,9 C 0,0 km/h
20.03.2012 05:00 1,4 C 85 % 1030,7 hPa 0,0 l/m 0,0 km/h S -0,8 C 1,4 C 0,0 km/h
20.03.2012 06:00 0,9 C 85 % 1031,0 hPa 0,0 l/m 0,0 km/h S -1,3 C 0,9 C 0,0 km/h
20.03.2012 07:00 1,6 C 83 % 1031,5 hPa 0,0 l/m 0,0 km/h N-NO -1,0 C 1,6 C 0,0 km/h
20.03.2012 08:00 6,1 C 86 % 1031,9 hPa 0,0 l/m 0,0 km/h NW 3,9 C 6,1 C 0,0 km/h
20.03.2012 09:00 9,9 C 74 % 1032,2 hPa 0,0 l/m 9,1 km/h NW 5,5 C 8,0 C 5,0 km/h
20.03.2012 10:00 13,6 C 61 % 1032,0 hPa 0,0 l/m 0,0 km/h W 6,2 C 13,6 C 0,0 km/h
20.03.2012 11:00 14,9 C 58 % 1031,5 hPa 0,0 l/m 2,6 km/h W 6,7 C 14,9 C 1,4 km/h
20.03.2012 12:00 15,6 C 53 % 1031,1 hPa 0,0 l/m 19,4 km/h W-NW 6,1 C 10,7 C 10,8 km/h
20.03.2012 13:00 15,8 C 52 % 1031,2 hPa 0,0 l/m 9,1 km/h W-NW 6,0 C 14,4 C 5,0 km/h
20.03.2012 14:00 17,8 C 47 % 1030,6 hPa 0,0 l/m 0,0 km/h NW 6,3 C 17,8 C 0,0 km/h
20.03.2012 15:00 19,9 C 42 % 1030,5 hPa 0,0 l/m 0,0 km/h W-NW 6,6 C 19,9 C 0,0 km/h
20.03.2012 16:00 20,4 C 38 % 1030,1 hPa 0,0 l/m 7,8 km/h W 5,6 C 19,8 C 4,3 km/h
20.03.2012 17:00 17,9 C 41 % 1030,2 hPa 0,0 l/m 1,9 km/h W-NW 4,5 C 17,9 C 1,1 km/h
20.03.2012 18:00 11,9 C 52 % 1030,6 hPa 0,0 l/m 0,0 km/h O-SO 2,4 C 11,9 C 0,0 km/h
20.03.2012 19:00 7,2 C 70 % 1031,3 hPa 0,0 l/m 0,0 km/h O-SO 2,1 C 7,2 C 0,0 km/h
20.03.2012 20:00 5,8 C 77 % 1031,8 hPa 0,0 l/m 0,0 km/h O-SO 2,1 C 5,8 C 0,0 km/h
20.03.2012 21:00 4,5 C 81 % 1032,1 hPa 0,0 l/m 0,0 km/h SO 1,5 C 4,5 C 0,0 km/h
20.03.2012 22:00 3,9 C 83 % 1031,8 hPa 0,0 l/m 0,0 km/h O-NO 1,3 C 3,9 C 0,0 km/h
20.03.2012 23:00 3,5 C 83 % 1031,6 hPa 0,0 l/m 0,0 km/h N-NO 0,9 C 3,5 C 0,0 km/h
21.03.2012 00:00 2,1 C 84 % 1031,3 hPa 0,0 l/m 2,6 km/h N-NO -0,3 C 2,1 C 1,4 km/h
21.03.2012 01:00 1,9 C 85 % 1031,2 hPa 0,0 l/m 0,0 km/h N-NO -0,3 C 1,9 C 0,0 km/h
21.03.2012 02:00 1,2 C 85 % 1031,4 hPa 0,0 l/m 0,0 km/h N-NO -1,0 C 1,2 C 0,0 km/h
21.03.2012 03:00 -0,1 C 86 % 1031,2 hPa 0,0 l/m 0,0 km/h N -2,2 C -0,1 C 0,0 km/h
21.03.2012 04:00 -0,4 C 86 % 1031,1 hPa 0,0 l/m 0,0 km/h N-NO -2,4 C -0,4 C 0,0 km/h
21.03.2012 05:00 -1,1 C 86 % 1031,2 hPa 0,0 l/m 0,0 km/h S-SO -3,1 C -1,1 C 0,0 km/h
21.03.2012 06:00 -1,2 C 86 % 1031,7 hPa 0,0 l/m 0,0 km/h O-NO -3,2 C -1,2 C 0,0 km/h
21.03.2012 07:00 0,1 C 85 % 1031,6 hPa 0,0 l/m 0,0 km/h NW -2,1 C 0,1 C 0,0 km/h
21.03.2012 08:00 6,4 C 84 % 1031,7 hPa 0,0 l/m 0,0 km/h W-SW 3,9 C 6,4 C 0,0 km/h
21.03.2012 09:00 9,3 C 72 % 1031,9 hPa 0,0 l/m 5,2 km/h W-SW 4,5 C 9,3 C 2,9 km/h
21.03.2012 10:00 14,1 C 60 % 1031,8 hPa 0,0 l/m 2,6 km/h W-SW 6,5 C 14,1 C 1,4 km/h
21.03.2012 11:00 15,9 C 52 % 1031,3 hPa 0,0 l/m 0,0 km/h N-NW 6,1 C 15,9 C 0,0 km/h
21.03.2012 12:00 17,6 C 52 % 1030,9 hPa 0,0 l/m 1,3 km/h W 7,6 C 17,6 C 0,7 km/h
21.03.2012 13:00 18,1 C 52 % 1030,1 hPa 0,0 l/m 0,0 km/h W 8,1 C 18,1 C 0,0 km/h
21.03.2012 14:00 19,6 C 47 % 1029,0 hPa 0,0 l/m 0,0 km/h W 8,0 C 19,6 C 0,0 km/h
21.03.2012 15:00 22,6 C 40 % 1028,3 hPa 0,0 l/m 0,0 km/h SW 8,3 C 22,6 C 0,0 km/h
21.03.2012 16:00 23,3 C 39 % 1027,9 hPa 0,0 l/m 2,6 km/h S-SO 8,6 C 23,3 C 1,4 km/h
21.03.2012 17:00 22,4 C 42 % 1027,3 hPa 0,0 l/m 0,0 km/h O-SO 8,9 C 22,4 C 0,0 km/h
21.03.2012 18:00 16,2 C 54 % 1027,3 hPa 0,0 l/m 0,0 km/h NO 6,9 C 16,2 C 0,0 km/h
21.03.2012 19:00 10,4 C 68 % 1028,0 hPa 0,0 l/m 0,0 km/h O-SO 4,8 C 10,4 C 0,0 km/h
21.03.2012 20:00 8,9 C 67 % 1027,9 hPa 0,0 l/m 0,0 km/h O-NO 3,1 C 8,9 C 0,0 km/h
21.03.2012 21:00 7,8 C 70 % 1027,8 hPa 0,0 l/m 0,0 km/h O-NO 2,7 C 7,8 C 0,0 km/h
21.03.2012 22:00 8,1 C 70 % 1028,0 hPa 0,0 l/m 0,0 km/h O-NO 3,0 C 8,1 C 0,0 km/h
21.03.2012 23:00 6,7 C 70 % 1028,0 hPa 0,0 l/m 0,0 km/h N-NO 1,6 C 6,7 C 0,0 km/h
22.03.2012 00:00 5,9 C 74 % 1027,9 hPa 0,0 l/m 0,0 km/h N-NO 1,6 C 5,9 C 0,0 km/h
22.03.2012 01:00 4,1 C 79 % 1027,7 hPa 0,0 l/m 0,0 km/h N-NO 0,8 C 4,1 C 0,0 km/h
22.03.2012 02:00 3,6 C 82 % 1027,3 hPa 0,0 l/m 0,0 km/h N-NO 0,8 C 3,6 C 0,0 km/h
22.03.2012 03:00 2,6 C 82 % 1027,1 hPa 0,0 l/m 0,0 km/h N-NW -0,2 C 2,6 C 0,0 km/h
22.03.2012 04:00 2,1 C 84 % 1027,0 hPa 0,0 l/m 0,0 km/h N-NO -0,3 C 2,1 C 0,0 km/h
22.03.2012 05:00 1,3 C 85 % 1026,7 hPa 0,0 l/m 0,0 km/h N-NO -0,9 C 1,3 C 0,0 km/h
22.03.2012 06:00 1,1 C 85 % 1026,8 hPa 0,0 l/m 0,0 km/h NO -1,1 C 1,1 C 0,0 km/h
22.03.2012 07:00 2,2 C 85 % 1027,0 hPa 0,0 l/m 0,0 km/h O-NO -0,1 C 2,2 C 0,0 km/h
22.03.2012 08:00 11,1 C 74 % 1026,8 hPa 0,0 l/m 0,0 km/h W-SW 6,6 C 11,1 C 0,0 km/h
22.03.2012 09:00 13,1 C 61 % 1026,5 hPa 0,0 l/m 0,0 km/h W-SW 5,8 C 13,1 C 0,0 km/h
22.03.2012 10:00 17,6 C 50 % 1026,1 hPa 0,0 l/m 0,0 km/h S-SO 7,1 C 17,6 C 0,0 km/h
22.03.2012 11:00 19,3 C 46 % 1025,7 hPa 0,0 l/m 5,8 km/h W 7,4 C 19,3 C 3,2 km/h
22.03.2012 12:00 19,7 C 44 % 1024,9 hPa 0,0 l/m 0,0 km/h W-NW 7,1 C 19,7 C 0,0 km/h
22.03.2012 13:00 20,4 C 44 % 1024,3 hPa 0,0 l/m 5,8 km/h W 7,7 C 20,4 C 3,2 km/h
22.03.2012 14:00 21,7 C 42 % 1023,6 hPa 0,0 l/m 10,4 km/h W-SW 8,2 C 20,4 C 5,8 km/h
22.03.2012 15:00 24,0 C 37 % 1022,7 hPa 0,0 l/m 5,8 km/h SO 8,4 C 24,0 C 3,2 km/h
22.03.2012 16:00 24,6 C 37 % 1022,2 hPa 0,0 l/m 6,5 km/h S-SO 8,9 C 24,6 C 3,6 km/h
22.03.2012 17:00 23,1 C 41 % 1021,9 hPa 0,0 l/m 5,8 km/h S-SO 9,1 C 23,1 C 3,2 km/h
22.03.2012 18:00 16,7 C 52 % 1022,1 hPa 0,0 l/m 0,0 km/h O-SO 6,8 C 16,7 C 0,0 km/h
22.03.2012 19:00 11,3 C 67 % 1022,4 hPa 0,0 l/m 0,0 km/h NO 5,4 C 11,3 C 0,0 km/h
22.03.2012 20:00 10,4 C 69 % 1023,0 hPa 0,0 l/m 0,0 km/h NO 5,0 C 10,4 C 0,0 km/h
22.03.2012 21:00 9,5 C 71 % 1022,9 hPa 0,0 l/m 0,0 km/h NO 4,5 C 9,5 C 0,0 km/h
22.03.2012 22:00 8,2 C 74 % 1023,2 hPa 0,0 l/m 0,0 km/h NO 3,8 C 8,2 C 0,0 km/h
22.03.2012 23:00 6,8 C 78 % 1023,2 hPa 0,0 l/m 0,0 km/h NO 3,2 C 6,8 C 0,0 km/h
23.03.2012 00:00 6,3 C 80 % 1023,2 hPa 0,0 l/m 0,0 km/h NO 3,1 C 6,3 C 0,0 km/h
23.03.2012 01:00 6,4 C 80 % 1023,4 hPa 0,0 l/m 0,0 km/h NO 3,2 C 6,4 C 0,0 km/h
23.03.2012 02:00 4,5 C 83 % 1023,2 hPa 0,0 l/m 0,0 km/h NO 1,9 C 4,5 C 0,0 km/h
23.03.2012 03:00 4,5 C 84 % 1022,7 hPa 0,0 l/m 0,0 km/h NO 2,0 C 4,5 C 0,0 km/h
23.03.2012 04:00 3,9 C 85 % 1022,9 hPa 0,0 l/m 0,0 km/h NO 1,6 C 3,9 C 0,0 km/h
23.03.2012 05:00 3,8 C 85 % 1023,2 hPa 0,0 l/m 0,0 km/h NO 1,5 C 3,8 C 0,0 km/h
23.03.2012 06:00 3,0 C 85 % 1023,2 hPa 0,0 l/m 0,0 km/h NO 0,7 C 3,0 C 0,0 km/h
23.03.2012 07:00 4,4 C 85 % 1023,8 hPa 0,0 l/m 0,0 km/h NO 2,1 C 4,4 C 0,0 km/h
23.03.2012 08:00 12,4 C 77 % 1024,0 hPa 0,0 l/m 0,0 km/h N-NO 8,5 C 12,4 C 0,0 km/h
23.03.2012 09:00 15,1 C 61 % 1023,9 hPa 0,0 l/m 3,9 km/h NW 7,6 C 15,1 C 2,2 km/h
23.03.2012 10:00 18,8 C 51 % 1023,7 hPa 0,0 l/m 0,0 km/h S 8,4 C 18,8 C 0,0 km/h
23.03.2012 11:00 19,8 C 49 % 1023,5 hPa 0,0 l/m 0,0 km/h NW 8,8 C 19,8 C 0,0 km/h
23.03.2012 12:00 20,9 C 46 % 1022,9 hPa 0,0 l/m 11,7 km/h W-NW 8,8 C 19,1 C 6,5 km/h
23.03.2012 13:00 21,5 C 43 % 1022,3 hPa 0,0 l/m 2,6 km/h W-NW 8,4 C 21,5 C 1,4 km/h
23.03.2012 14:00 22,9 C 42 % 1021,6 hPa 0,0 l/m 4,5 km/h NW 9,3 C 22,9 C 2,5 km/h
23.03.2012 15:00 24,3 C 37 % 1021,2 hPa 0,0 l/m 1,9 km/h W 8,7 C 24,3 C 1,1 km/h
23.03.2012 16:00 24,3 C 37 % 1020,8 hPa 0,0 l/m 13,6 km/h N-NO 8,7 C 22,7 C 7,6 km/h
23.03.2012 17:00 20,8 C 41 % 1020,5 hPa 0,0 l/m 0,0 km/h N-NO 7,1 C 20,8 C 0,0 km/h
23.03.2012 18:00 16,5 C 52 % 1020,8 hPa 0,0 l/m 0,0 km/h O-SO 6,6 C 16,5 C 0,0 km/h
23.03.2012 19:00 13,6 C 64 % 1021,4 hPa 0,0 l/m 0,0 km/h NO 6,9 C 13,6 C 0,0 km/h
23.03.2012 20:00 11,9 C 70 % 1021,7 hPa 0,0 l/m 0,0 km/h NO 6,6 C 11,9 C 0,0 km/h
23.03.2012 21:00 10,4 C 75 % 1021,8 hPa 0,0 l/m 0,0 km/h SO 6,2 C 10,4 C 0,0 km/h
23.03.2012 22:00 8,8 C 79 % 1021,9 hPa 0,0 l/m 9,7 km/h NO 5,4 C 6,5 C 5,4 km/h
23.03.2012 23:00 8,7 C 78 % 1021,8 hPa 0,0 l/m 0,0 km/h NO 5,1 C 8,7 C 0,0 km/h
24.03.2012 00:00 6,3 C 82 % 1021,6 hPa 0,0 l/m 0,0 km/h N-NO 3,5 C 6,3 C 0,0 km/h
24.03.2012 01:00 6,1 C 84 % 1021,7 hPa 0,0 l/m 0,0 km/h O-SO 3,6 C 6,1 C 0,0 km/h
24.03.2012 02:00 5,6 C 84 % 1021,7 hPa 0,0 l/m 0,0 km/h NO 3,1 C 5,6 C 0,0 km/h
24.03.2012 03:00 4,5 C 85 % 1021,6 hPa 0,0 l/m 0,0 km/h NO 2,2 C 4,5 C 0,0 km/h
24.03.2012 04:00 4,2 C 85 % 1021,8 hPa 0,0 l/m 0,0 km/h O-NO 1,9 C 4,2 C 0,0 km/h
24.03.2012 05:00 3,5 C 85 % 1022,1 hPa 0,0 l/m 0,0 km/h N-NO 1,2 C 3,5 C 0,0 km/h
24.03.2012 06:00 3,5 C 85 % 1022,3 hPa 0,0 l/m 0,0 km/h NO 1,2 C 3,5 C 0,0 km/h
24.03.2012 07:00 4,9 C 84 % 1022,9 hPa 0,0 l/m 0,0 km/h NO 2,4 C 4,9 C 0,0 km/h
24.03.2012 08:00 11,4 C 80 % 1023,1 hPa 0,0 l/m 0,0 km/h W 8,1 C 11,4 C 0,0 km/h
24.03.2012 09:00 14,9 C 66 % 1023,1 hPa 0,0 l/m 0,0 km/h W 8,6 C 14,9 C 0,0 km/h
24.03.2012 10:00 18,9 C 54 % 1023,3 hPa 0,0 l/m 0,0 km/h N-NO 9,4 C 18,9 C 0,0 km/h
24.03.2012 11:00 20,7 C 48 % 1023,0 hPa 0,0 l/m 0,0 km/h N-NW 9,3 C 20,7 C 0,0 km/h
24.03.2012 12:00 21,3 C 48 % 1022,6 hPa 0,0 l/m 0,0 km/h W-NW 9,8 C 21,3 C 0,0 km/h
24.03.2012 13:00 21,4 C 45 % 1022,1 hPa 0,0 l/m 23,3 km/h N-NW 9,0 C 17,5 C 13,0 km/h
24.03.2012 14:00 23,8 C 38 % 1021,4 hPa 0,0 l/m 2,6 km/h N-NO 8,6 C 23,8 C 1,4 km/h
24.03.2012 15:00 25,2 C 33 % 1021,2 hPa 0,0 l/m 4,5 km/h N-NO 7,8 C 25,2 C 2,5 km/h
24.03.2012 16:00 24,2 C 33 % 1020,7 hPa 0,0 l/m 20,7 km/h NO 6,9 C 21,5 C 11,5 km/h
24.03.2012 17:00 23,3 C 32 % 1020,8 hPa 0,0 l/m 18,8 km/h N 5,7 C 20,6 C 10,4 km/h
24.03.2012 18:00 17,8 C 39 % 1021,8 hPa 0,0 l/m 0,0 km/h N 3,7 C 17,8 C 0,0 km/h
24.03.2012 19:00 17,8 C 39 % 1021,8 hPa 0,0 l/m 0,0 km/h O-SO 3,7 C 17,8 C 0,0 km/h
24.03.2012 20:00 12,4 C 57 % 1022,2 hPa 0,0 l/m 0,0 km/h NO 4,1 C 12,4 C 0,0 km/h
24.03.2012 21:00 10,8 C 64 % 1022,7 hPa 0,0 l/m 0,0 km/h N-NO 4,3 C 10,8 C 0,0 km/h
24.03.2012 22:00 10,4 C 69 % 1023,0 hPa 0,0 l/m 0,0 km/h SO 5,0 C 10,4 C 0,0 km/h
24.03.2012 23:00 9,9 C 70 % 1023,3 hPa 0,0 l/m 14,9 km/h SO 4,7 C 5,1 C 8,3 km/h
25.03.2012 00:00 8,4 C 72 % 1023,6 hPa 0,0 l/m 0,0 km/h O-SO 3,7 C 8,4 C 0,0 km/h
25.03.2012 01:00 8,8 C 73 % 1023,6 hPa 0,0 l/m 13,0 km/h NO 4,2 C 4,6 C 7,2 km/h
25.03.2012 02:00 8,3 C 74 % 1023,6 hPa 0,0 l/m 0,0 km/h NO 3,9 C 8,3 C 0,0 km/h
25.03.2012 03:00 7,0 C 77 % 1023,7 hPa 0,0 l/m 0,0 km/h SO 3,2 C 7,0 C 0,0 km/h
25.03.2012 04:00 6,4 C 80 % 1023,8 hPa 0,0 l/m 0,0 km/h O-NO 3,2 C 6,4 C 0,0 km/h
25.03.2012 05:00 6,2 C 80 % 1024,3 hPa 0,0 l/m 0,0 km/h NO 3,0 C 6,2 C 0,0 km/h
25.03.2012 06:00 5,0 C 81 % 1024,5 hPa 0,0 l/m 0,0 km/h NO 2,0 C 5,0 C 0,0 km/h
25.03.2012 07:00 3,6 C 83 % 1025,1 hPa 0,0 l/m 0,0 km/h N-NO 1,0 C 3,6 C 0,0 km/h
25.03.2012 08:00 5,3 C 84 % 1025,6 hPa 0,0 l/m 0,0 km/h N-NO 2,8 C 5,3 C 0,0 km/h
25.03.2012 09:00 13,2 C 70 % 1025,9 hPa 0,0 l/m 0,0 km/h N-NW 7,9 C 13,2 C 0,0 km/h
25.03.2012 10:00 15,6 C 59 % 1026,1 hPa 0,0 l/m 0,0 km/h W 7,6 C 15,6 C 0,0 km/h
25.03.2012 11:00 20,1 C 50 % 1026,5 hPa 0,0 l/m 1,9 km/h W-SW 9,3 C 20,1 C 1,1 km/h
25.03.2012 12:00 21,4 C 49 % 1026,0 hPa 0,0 l/m 3,9 km/h O-NO 10,2 C 21,4 C 2,2 km/h
25.03.2012 13:00 22,4 C 39 % 1025,6 hPa 0,0 l/m 0,0 km/h O 7,8 C 22,4 C 0,0 km/h
25.03.2012 14:00 23,6 C 33 % 1025,0 hPa 0,0 l/m 11,7 km/h O-NO 6,4 C 22,2 C 6,5 km/h
25.03.2012 15:00 25,8 C 30 % 1025,0 hPa 0,0 l/m 4,5 km/h NO 6,9 C 25,8 C 2,5 km/h
25.03.2012 16:00 27,8 C 27 % 1024,9 hPa 0,0 l/m 0,0 km/h N-NO 7,1 C 27,8 C 0,0 km/h
25.03.2012 17:00 26,2 C 28 % 1024,7 hPa 0,0 l/m 21,4 km/h N-NO 6,2 C 24,1 C 11,9 km/h
25.03.2012 18:00 25,5 C 28 % 1024,8 hPa 0,0 l/m 0,0 km/h NO 5,6 C 25,5 C 0,0 km/h
25.03.2012 19:00 19,2 C 36 % 1025,6 hPa 0,0 l/m 0,0 km/h N-NO 3,8 C 19,2 C 0,0 km/h
25.03.2012 20:00 13,8 C 48 % 1026,2 hPa 0,0 l/m 0,0 km/h O-SO 3,0 C 13,8 C 0,0 km/h
25.03.2012 21:00 11,0 C 59 % 1026,8 hPa 0,0 l/m 0,0 km/h NO 3,3 C 11,0 C 0,0 km/h
25.03.2012 22:00 10,2 C 65 % 1027,2 hPa 0,0 l/m 0,0 km/h SO 3,9 C 10,2 C 0,0 km/h
25.03.2012 23:00 8,1 C 70 % 1027,3 hPa 0,0 l/m 0,0 km/h NO 3,0 C 8,1 C 0,0 km/h
Min-Datum _ 21.03.12 25.03.12 23.03.12 - 19.03.12 - 21.03.12 21.03.12 19.03.12
_ Min-Zeit 06:30 16:30 17:30 - 00:30 - 06:30 06:30 00:30
Minimum _ -1,2 C 27 % 1020,5 hPa - 0,0 km/h - -3,2 C -1,2 C 0,0 km/h
Max-Datum _ 25.03.12 19.03.12 20.03.12 19.03.12 24.03.12 - 25.03.12 25.03.12 24.03.12
_ Max-Zeit 16:30 22:30 09:30 08:30 13:30 - 12:30 16:30 13:30
Maximum _ 27,8 C 86 % 1032,2 hPa 1,1 l/m 23,3 km/h
N-NW
- 10,2 C 27,8 C 13,0 km/h
N-NW
Durchschnitt _ 11,0 C 67 % 1025,9 hPa #6,8 l/m 1,8 km/h NO 4,3 C 10,8 C 1,0 km/h
www.sexauwetter.de